createdAt,value
2017-09-07T00:00:48.513Z,1007.13
2017-09-07T00:01:48.493Z,1007.14
2017-09-07T00:02:48.470Z,1007.08
2017-09-07T00:03:48.448Z,1007.10
2017-09-07T00:04:48.427Z,1007.08
2017-09-07T00:05:48.404Z,1007.08
2017-09-07T00:06:48.379Z,1007.09
2017-09-07T00:07:48.359Z,1007.06
2017-09-07T00:08:48.336Z,1007.15
2017-09-07T00:09:48.315Z,1007.17
2017-09-07T00:10:48.291Z,1007.10
2017-09-07T00:11:48.272Z,1007.03
2017-09-07T00:12:48.248Z,1007.11
2017-09-07T00:13:48.227Z,1007.05
2017-09-07T00:14:48.204Z,1007.09
2017-09-07T00:15:48.187Z,1007.05
2017-09-07T00:16:48.164Z,1007.08
2017-09-07T00:17:48.147Z,1007.09
2017-09-07T00:18:48.120Z,1007.12
2017-09-07T00:19:48.100Z,1007.09
2017-09-07T00:20:48.073Z,1007.08
2017-09-07T00:21:48.056Z,1007.09
2017-09-07T00:22:48.033Z,1007.08
2017-09-07T00:23:48.007Z,1007.07
2017-09-07T00:24:47.985Z,1007.12
2017-09-07T00:25:47.971Z,1007.15
2017-09-07T00:26:47.946Z,1007.06
2017-09-07T00:27:47.923Z,1007.06
2017-09-07T00:28:47.901Z,1007.05
2017-09-07T00:29:47.875Z,1007.13
2017-09-07T00:30:47.856Z,1007.11
2017-09-07T00:31:47.836Z,1007.10
2017-09-07T00:32:47.813Z,1007.10
2017-09-07T00:33:47.789Z,1007.09
2017-09-07T00:34:47.769Z,1007.11
2017-09-07T00:35:47.750Z,1007.15
2017-09-07T00:36:47.733Z,1007.13
2017-09-07T00:37:47.706Z,1007.05
2017-09-07T00:38:47.678Z,1007.13
2017-09-07T00:39:47.657Z,1007.12
2017-09-07T00:40:47.641Z,1007.09
2017-09-07T00:41:47.614Z,1007.13
2017-09-07T00:42:47.591Z,1007.12
2017-09-07T00:43:47.573Z,1007.10
2017-09-07T00:44:47.553Z,1007.15
2017-09-07T00:45:47.531Z,1007.07
2017-09-07T00:46:47.508Z,1007.08
2017-09-07T00:47:47.485Z,1007.08
2017-09-07T00:48:47.464Z,1007.08
2017-09-07T00:49:47.439Z,1007.01
2017-09-07T00:50:47.415Z,1007.03
2017-09-07T00:51:47.398Z,1007.01
2017-09-07T00:52:47.378Z,1006.97
2017-09-07T00:53:47.351Z,1007.04
2017-09-07T00:54:47.332Z,1007.03
2017-09-07T00:55:47.310Z,1006.98
2017-09-07T00:56:47.284Z,1007.01
2017-09-07T00:57:47.264Z,1007.01
2017-09-07T00:58:47.243Z,1007.05
2017-09-07T00:59:47.218Z,1007.00
2017-09-07T01:00:47.201Z,1007.03
2017-09-07T01:01:47.176Z,1006.97
2017-09-07T01:43:50.286Z,1006.97
2017-09-07T01:44:46.231Z,1006.92
2017-09-07T01:45:46.210Z,1006.93
2017-09-07T01:46:46.187Z,1006.96
2017-09-07T01:47:46.170Z,1006.94
2017-09-07T01:48:46.144Z,1006.86
2017-09-07T01:49:46.122Z,1006.93
2017-09-07T01:50:46.099Z,1006.94
2017-09-07T01:51:46.078Z,1006.97
2017-09-07T01:52:46.056Z,1007.00
2017-09-07T01:53:46.035Z,1006.95
2017-09-07T01:54:46.013Z,1006.97
2017-09-07T01:55:45.991Z,1006.94
2017-09-07T01:56:45.968Z,1007.01
2017-09-07T01:57:45.945Z,1007.02
2017-09-07T01:58:45.923Z,1006.99
2017-09-07T01:59:45.901Z,1007.06
2017-09-07T02:00:45.881Z,1007.05
2017-09-07T02:01:45.858Z,1007.05
2017-09-07T02:02:45.836Z,1007.04
2017-09-07T02:03:45.814Z,1006.98
2017-09-07T02:04:45.793Z,1006.99
2017-09-07T02:05:45.770Z,1006.99
2017-09-07T02:06:45.749Z,1007.06
2017-09-07T02:07:45.726Z,1007.19
2017-09-07T02:08:45.704Z,1007.15
2017-09-07T02:09:45.683Z,1007.10
2017-09-07T02:10:45.659Z,1007.11
2017-09-07T02:11:45.638Z,1007.08
2017-09-07T02:12:45.615Z,1007.01
2017-09-07T02:13:45.594Z,1007.05
2017-09-07T02:14:45.572Z,1007.07
2017-09-07T02:15:45.551Z,1007.03
2017-09-07T02:16:45.527Z,1007.11
2017-09-07T02:17:45.506Z,1007.03
2017-09-07T02:18:45.485Z,1007.03
2017-09-07T02:19:45.461Z,1007.12
2017-09-07T02:20:45.440Z,1007.04
2017-09-07T02:21:45.419Z,1007.00
2017-09-07T02:22:45.396Z,1006.98
2017-09-07T02:23:45.374Z,1007.03
2017-09-07T02:24:45.354Z,1007.03
2017-09-07T02:25:45.331Z,1007.08
2017-09-07T02:26:45.305Z,1007.02
2017-09-07T02:27:45.285Z,1007.09
2017-09-07T02:28:45.263Z,1007.07
2017-09-07T02:29:45.243Z,1007.14
2017-09-07T02:30:45.219Z,1007.13
2017-09-07T02:31:45.198Z,1007.14
2017-09-07T02:32:45.173Z,1007.07
2017-09-07T02:33:45.154Z,1007.19
2017-09-07T02:34:45.132Z,1007.09
2017-09-07T02:35:45.109Z,1007.17
2017-09-07T02:36:45.087Z,1007.13
2017-09-07T02:37:45.067Z,1007.16
2017-09-07T02:38:45.042Z,1007.10
2017-09-07T02:39:45.020Z,1007.18
2017-09-07T02:40:44.999Z,1007.13
2017-09-07T02:41:44.978Z,1007.12
2017-09-07T02:42:44.955Z,1007.14
2017-09-07T02:43:44.933Z,1007.12
2017-09-07T02:44:44.910Z,1007.16
2017-09-07T02:45:44.892Z,1007.20
2017-09-07T02:46:44.865Z,1007.12
2017-09-07T02:47:44.845Z,1007.18
2017-09-07T02:48:44.825Z,1007.16
2017-09-07T02:49:44.801Z,1007.22
2017-09-07T02:50:44.779Z,1007.16
2017-09-07T02:51:44.761Z,1007.13
2017-09-07T02:52:44.735Z,1007.17
2017-09-07T02:53:44.714Z,1007.17
2017-09-07T02:54:44.690Z,1007.10
2017-09-07T02:55:44.668Z,1007.12
2017-09-07T02:56:44.648Z,1007.15
2017-09-07T02:57:44.625Z,1007.10
2017-09-07T02:58:44.601Z,1007.09
2017-09-07T02:59:44.580Z,1007.07
2017-09-07T03:00:44.557Z,1007.08
2017-09-07T03:01:44.536Z,1007.06
2017-09-07T03:02:44.513Z,1007.11
2017-09-07T03:03:44.491Z,1007.04
2017-09-07T03:04:44.471Z,1007.08
2017-09-07T03:05:44.448Z,1007.02
2017-09-07T03:06:44.427Z,1007.04
2017-09-07T03:07:44.404Z,1007.07
2017-09-07T03:08:44.383Z,1007.07
2017-09-07T03:09:44.360Z,1007.10
2017-09-07T03:10:44.337Z,1007.00
2017-09-07T03:11:44.315Z,1007.02
2017-09-07T03:12:44.295Z,1007.02
2017-09-07T03:13:44.270Z,1006.99
2017-09-07T03:14:44.249Z,1007.07
2017-09-07T03:15:44.227Z,1007.07
2017-09-07T03:16:44.205Z,1007.06
2017-09-07T03:17:44.184Z,1007.03
2017-09-07T03:18:44.161Z,1007.07
2017-09-07T03:19:44.139Z,1007.07
2017-09-07T03:20:44.116Z,1007.09
2017-09-07T03:21:44.105Z,1007.08
2017-09-07T03:22:44.072Z,1007.08
2017-09-07T03:23:44.049Z,1007.06
2017-09-07T03:24:44.027Z,1007.08
2017-09-07T03:25:44.010Z,1007.12
2017-09-07T03:26:43.988Z,1007.08
2017-09-07T03:27:43.965Z,1007.16
2017-09-07T03:28:43.945Z,1007.06
2017-09-07T03:29:43.919Z,1007.05
2017-09-07T03:30:43.896Z,1007.07
2017-09-07T03:31:43.874Z,1007.07
2017-09-07T03:32:43.852Z,1006.99
2017-09-07T03:33:43.832Z,1007.09
2017-09-07T03:34:43.805Z,1007.08
2017-09-07T03:35:43.785Z,1007.09
2017-09-07T03:36:43.764Z,1007.07
2017-09-07T03:37:43.743Z,1007.09
2017-09-07T03:38:43.718Z,1007.07
2017-09-07T03:39:43.700Z,1007.09
2017-09-07T03:40:43.678Z,1007.11
2017-09-07T03:41:43.654Z,1007.10
2017-09-07T03:42:43.629Z,1007.07
2017-09-07T03:43:43.609Z,1007.09
2017-09-07T03:44:43.586Z,1007.13
2017-09-07T03:45:43.564Z,1007.11
2017-09-07T03:46:43.542Z,1007.10
2017-09-07T03:47:43.519Z,1007.08
2017-09-07T03:48:43.497Z,1007.12
2017-09-07T03:49:43.478Z,1007.07
2017-09-07T03:50:43.453Z,1007.07
2017-09-07T03:51:43.431Z,1007.10
2017-09-07T03:52:43.409Z,1007.06
2017-09-07T03:53:43.390Z,1007.10
2017-09-07T03:54:43.364Z,1007.14
2017-09-07T03:55:43.344Z,1007.11
2017-09-07T03:56:43.322Z,1007.11
2017-09-07T03:57:43.300Z,1007.25
2017-09-07T03:58:43.281Z,1007.25
2017-09-07T03:59:43.254Z,1007.08
2017-09-07T04:00:43.231Z,1007.06
2017-09-07T04:01:43.213Z,1007.09
2017-09-07T04:02:43.188Z,1007.13
2017-09-07T04:03:43.167Z,1007.14
2017-09-07T04:04:43.144Z,1007.11
2017-09-07T04:05:43.123Z,1007.10
2017-09-07T04:06:43.100Z,1007.10
2017-09-07T04:07:43.078Z,1007.13
2017-09-07T04:08:43.056Z,1007.09
2017-09-07T04:09:43.034Z,1007.10
2017-09-07T04:10:43.011Z,1007.09
2017-09-07T04:11:42.990Z,1007.13
2017-09-07T04:12:42.968Z,1007.14
2017-09-07T04:13:42.946Z,1007.11
2017-09-07T04:14:42.923Z,1007.06
2017-09-07T04:15:42.901Z,1007.09
2017-09-07T04:16:42.881Z,1007.08
2017-09-07T04:17:42.858Z,1007.12
2017-09-07T04:18:42.834Z,1007.10
2017-09-07T04:19:42.813Z,1007.10
2017-09-07T04:20:42.792Z,1007.09
2017-09-07T04:21:42.772Z,1007.13
2017-09-07T04:22:42.746Z,1007.12
2017-09-07T04:23:42.724Z,1007.07
2017-09-07T04:24:42.702Z,1007.14
2017-09-07T04:25:42.680Z,1007.12
2017-09-07T04:26:42.658Z,1007.11
2017-09-07T04:27:42.638Z,1007.02
2017-09-07T04:28:42.618Z,1007.08
2017-09-07T04:29:42.592Z,1007.07
2017-09-07T04:30:42.596Z,1007.06
2017-09-07T04:31:42.549Z,1007.10
2017-09-07T04:32:42.525Z,1007.12
2017-09-07T04:33:42.505Z,1007.10
2017-09-07T04:34:42.479Z,1007.20
2017-09-07T04:35:42.460Z,1007.11
2017-09-07T04:36:42.438Z,1007.15
2017-09-07T04:37:42.415Z,1007.21
2017-09-07T04:38:42.392Z,1007.09
2017-09-07T04:39:42.371Z,1007.13
2017-09-07T04:40:42.350Z,1007.20
2017-09-07T04:41:42.327Z,1007.17
2017-09-07T04:42:42.305Z,1007.21
2017-09-07T04:43:42.283Z,1007.18
2017-09-07T04:44:42.261Z,1007.25
2017-09-07T04:45:42.238Z,1007.22
2017-09-07T04:46:42.215Z,1007.23
2017-09-07T04:47:42.195Z,1007.27
2017-09-07T04:48:42.171Z,1007.24
2017-09-07T04:49:42.172Z,1007.23
2017-09-07T04:50:42.127Z,1007.34
2017-09-07T04:51:42.106Z,1007.19
2017-09-07T04:52:42.083Z,1007.31
2017-09-07T04:53:42.061Z,1007.20
2017-09-07T04:54:42.039Z,1007.24
2017-09-07T04:55:42.016Z,1007.25
2017-09-07T04:56:41.997Z,1007.31
2017-09-07T04:57:41.974Z,1007.33
2017-09-07T04:58:41.950Z,1007.31
2017-09-07T04:59:41.929Z,1007.26
2017-09-07T05:00:41.907Z,1007.30
2017-09-07T05:01:41.884Z,1007.26
2017-09-07T05:02:41.861Z,1007.27
2017-09-07T05:03:41.840Z,1007.30
2017-09-07T05:04:41.817Z,1007.38
2017-09-07T05:05:41.797Z,1007.31
2017-09-07T05:06:41.772Z,1007.34
2017-09-07T05:07:41.752Z,1007.28
2017-09-07T05:08:41.729Z,1007.34
2017-09-07T05:09:41.708Z,1007.39
2017-09-07T05:10:41.685Z,1007.44
2017-09-07T05:11:41.663Z,1007.38
2017-09-07T05:12:41.644Z,1007.40
2017-09-07T05:13:41.620Z,1007.34
2017-09-07T05:14:41.597Z,1007.39
2017-09-07T05:15:41.573Z,1007.35
2017-09-07T05:16:41.553Z,1007.35
2017-09-07T05:17:41.530Z,1007.32
2017-09-07T05:18:41.508Z,1007.34
2017-09-07T05:19:41.486Z,1007.40
2017-09-07T05:20:41.465Z,1007.30
2017-09-07T05:21:41.445Z,1007.29
2017-09-07T05:22:41.419Z,1007.27
2017-09-07T05:23:41.398Z,1007.32
2017-09-07T05:24:41.378Z,1007.28
2017-09-07T05:25:41.355Z,1007.29
2017-09-07T05:26:41.333Z,1007.24
2017-09-07T05:27:41.310Z,1007.33
2017-09-07T05:28:41.288Z,1007.30
2017-09-07T05:29:41.266Z,1007.31
2017-09-07T05:30:41.250Z,1007.29
2017-09-07T05:31:41.221Z,1007.19
2017-09-07T05:32:41.203Z,1007.24
2017-09-07T05:33:41.181Z,1007.33
2017-09-07T05:34:41.154Z,1007.32
2017-09-07T05:35:41.135Z,1007.30
2017-09-07T05:36:41.111Z,1007.29
2017-09-07T05:37:41.090Z,1007.33
2017-09-07T05:38:41.067Z,1007.33
2017-09-07T05:39:41.047Z,1007.33
2017-09-07T05:40:41.048Z,1007.42
2017-09-07T05:41:41.002Z,1007.39
2017-09-07T05:42:40.980Z,1007.45
2017-09-07T05:43:40.957Z,1007.38
2017-09-07T05:44:40.935Z,1007.42
2017-09-07T05:45:40.912Z,1007.41
2017-09-07T05:46:40.890Z,1007.60
2017-09-07T05:47:40.869Z,1007.45
2017-09-07T05:48:40.847Z,1007.48
2017-09-07T05:49:40.826Z,1007.48
2017-09-07T05:50:40.804Z,1007.47
2017-09-07T05:51:40.781Z,1007.55
2017-09-07T05:52:40.758Z,1007.55
2017-09-07T05:53:40.736Z,1007.50
2017-09-07T05:54:40.714Z,1007.53
2017-09-07T05:55:40.693Z,1007.50
2017-09-07T05:56:40.671Z,1007.50
2017-09-07T05:57:40.650Z,1007.49
2017-09-07T05:58:40.627Z,1007.55
2017-09-07T05:59:40.605Z,1007.51
2017-09-07T06:00:40.583Z,1007.54
2017-09-07T06:01:40.580Z,1007.54
2017-09-07T06:02:40.539Z,1007.53
2017-09-07T06:03:40.517Z,1007.53
2017-09-07T06:04:40.495Z,1007.49
2017-09-07T06:05:40.473Z,1007.53
2017-09-07T06:06:40.450Z,1007.54
2017-09-07T06:07:40.429Z,1007.53
2017-09-07T06:08:40.407Z,1007.53
2017-09-07T06:09:40.386Z,1007.53
2017-09-07T06:10:40.362Z,1007.60
2017-09-07T06:11:40.341Z,1007.57
2017-09-07T06:12:40.319Z,1007.58
2017-09-07T06:13:40.298Z,1007.63
2017-09-07T06:14:40.274Z,1007.65
2017-09-07T06:15:40.253Z,1007.58
2017-09-07T06:16:40.233Z,1007.60
2017-09-07T06:17:40.209Z,1007.61
2017-09-07T06:18:40.188Z,1007.59
2017-09-07T06:19:40.165Z,1007.58
2017-09-07T06:20:40.149Z,1007.56
2017-09-07T06:21:40.122Z,1007.51
2017-09-07T06:22:40.100Z,1007.52
2017-09-07T06:23:40.079Z,1007.53
2017-09-07T06:24:40.059Z,1007.58
2017-09-07T06:25:40.034Z,1007.56
2017-09-07T06:26:40.012Z,1007.49
2017-09-07T06:27:39.989Z,1007.53
2017-09-07T06:28:39.969Z,1007.58
2017-09-07T06:29:39.946Z,1007.59
2017-09-07T06:30:39.923Z,1007.56
2017-09-07T06:31:39.902Z,1007.57
2017-09-07T06:32:39.881Z,1007.58
2017-09-07T06:33:39.858Z,1007.53
2017-09-07T06:34:39.836Z,1007.59
2017-09-07T06:35:39.814Z,1007.62
2017-09-07T06:36:39.792Z,1007.43
2017-09-07T06:37:39.770Z,1007.51
2017-09-07T06:38:39.748Z,1007.50
2017-09-07T06:39:39.727Z,1007.54
2017-09-07T06:40:39.705Z,1007.53
2017-09-07T06:41:39.683Z,1007.49
2017-09-07T06:42:39.660Z,1007.55
2017-09-07T06:43:39.639Z,1007.51
2017-09-07T06:44:39.616Z,1007.52
2017-09-07T06:45:39.595Z,1007.52
2017-09-07T06:46:39.572Z,1007.51
2017-09-07T06:47:39.551Z,1007.61
2017-09-07T06:48:39.529Z,1007.53
2017-09-07T06:49:39.507Z,1007.55
2017-09-07T06:50:39.486Z,1007.56
2017-09-07T06:51:39.469Z,1007.51
2017-09-07T06:52:39.441Z,1007.54
2017-09-07T06:53:39.422Z,1007.51
2017-09-07T06:54:39.398Z,1007.57
2017-09-07T06:55:39.377Z,1007.56
2017-09-07T06:56:39.354Z,1007.57
2017-09-07T06:57:39.334Z,1007.55
2017-09-07T06:58:39.310Z,1007.52
2017-09-07T06:59:39.287Z,1007.55
2017-09-07T07:00:39.267Z,1007.51
2017-09-07T07:01:39.244Z,1007.52
2017-09-07T07:02:39.221Z,1007.54
2017-09-07T07:03:39.202Z,1007.59
2017-09-07T07:04:39.178Z,1007.50
2017-09-07T07:05:39.158Z,1007.60
2017-09-07T07:06:39.134Z,1007.59
2017-09-07T07:07:39.113Z,1007.53
2017-09-07T07:08:39.090Z,1007.69
2017-09-07T07:09:39.070Z,1007.59
2017-09-07T07:10:39.047Z,1007.51
2017-09-07T07:11:39.026Z,1007.62
2017-09-07T07:12:39.005Z,1007.56
2017-09-07T07:13:38.983Z,1007.57
2017-09-07T07:14:38.961Z,1007.57
2017-09-07T07:15:38.938Z,1007.55
2017-09-07T07:16:38.916Z,1007.53
2017-09-07T07:17:38.895Z,1007.58
2017-09-07T07:18:38.871Z,1007.56
2017-09-07T07:19:38.850Z,1007.55
2017-09-07T07:20:38.828Z,1007.60
2017-09-07T07:21:38.808Z,1007.58
2017-09-07T07:22:38.785Z,1007.62
2017-09-07T07:23:38.763Z,1007.64
2017-09-07T07:24:38.741Z,1007.53
2017-09-07T07:25:38.722Z,1007.66
2017-09-07T07:26:38.697Z,1007.62
2017-09-07T07:27:38.676Z,1007.62
2017-09-07T07:28:38.652Z,1007.59
2017-09-07T07:29:38.640Z,1007.64
2017-09-07T07:30:38.609Z,1007.61
2017-09-07T07:31:38.588Z,1007.62
2017-09-07T07:32:38.566Z,1007.59
2017-09-07T07:33:38.545Z,1007.62
2017-09-07T07:34:38.523Z,1007.68
2017-09-07T07:35:38.500Z,1007.65
2017-09-07T07:36:38.478Z,1007.64
2017-09-07T07:37:38.456Z,1007.66
2017-09-07T07:38:38.440Z,1007.62
2017-09-07T07:39:38.413Z,1007.63
2017-09-07T07:40:38.390Z,1007.60
2017-09-07T07:41:38.369Z,1007.66
2017-09-07T07:42:38.346Z,1007.66
2017-09-07T07:43:38.326Z,1007.64
2017-09-07T07:44:38.304Z,1007.69
2017-09-07T07:45:38.282Z,1007.69
2017-09-07T07:46:38.258Z,1007.70
2017-09-07T07:47:38.238Z,1007.64
2017-09-07T07:48:38.215Z,1007.73
2017-09-07T07:49:38.195Z,1007.64
2017-09-07T07:50:38.170Z,1007.72
2017-09-07T07:51:38.171Z,1007.67
2017-09-07T07:52:38.127Z,1007.65
2017-09-07T07:53:38.107Z,1007.66
2017-09-07T07:54:38.083Z,1007.67
2017-09-07T07:55:38.066Z,1007.65
2017-09-07T07:56:38.041Z,1007.64
2017-09-07T07:57:38.018Z,1007.60
2017-09-07T07:58:37.996Z,1007.62
2017-09-07T07:59:37.973Z,1007.71
2017-09-07T08:00:37.952Z,1007.63
2017-09-07T08:01:37.930Z,1007.57
2017-09-07T08:02:37.908Z,1007.59
2017-09-07T08:03:37.887Z,1007.60
2017-09-07T08:04:37.866Z,1007.64
2017-09-07T08:05:37.846Z,1007.58
2017-09-07T08:06:37.822Z,1007.66
2017-09-07T08:07:37.802Z,1007.65
2017-09-07T08:08:37.780Z,1007.63
2017-09-07T08:09:37.761Z,1007.61
2017-09-07T08:10:37.736Z,1007.60
2017-09-07T08:11:37.712Z,1007.71
2017-09-07T08:12:37.691Z,1007.62
2017-09-07T08:13:37.670Z,1007.57
2017-09-07T08:14:37.648Z,1007.63
2017-09-07T08:15:37.626Z,1007.62
2017-09-07T08:16:37.604Z,1007.65
2017-09-07T08:17:37.583Z,1007.65
2017-09-07T08:18:37.560Z,1007.63
2017-09-07T08:19:37.539Z,1007.65
2017-09-07T08:20:37.516Z,1007.69
2017-09-07T08:21:37.495Z,1007.65
2017-09-07T08:22:37.478Z,1007.67
2017-09-07T08:23:37.452Z,1007.69
2017-09-07T08:24:37.429Z,1007.62
2017-09-07T08:25:37.408Z,1007.61
2017-09-07T08:26:37.385Z,1007.69
2017-09-07T08:27:37.364Z,1007.71
2017-09-07T08:28:37.342Z,1007.64
2017-09-07T08:29:37.320Z,1007.68
2017-09-07T08:30:37.298Z,1007.66
2017-09-07T08:31:37.276Z,1007.66
2017-09-07T08:32:37.255Z,1007.74
2017-09-07T08:33:37.235Z,1007.69
2017-09-07T08:34:37.217Z,1007.70
2017-09-07T08:35:37.190Z,1007.71
2017-09-07T08:36:37.169Z,1007.83
2017-09-07T08:37:37.147Z,1007.72
2017-09-07T08:38:37.124Z,1007.81
2017-09-07T08:39:37.102Z,1007.75
2017-09-07T08:40:37.082Z,1007.72
2017-09-07T08:41:37.059Z,1007.72
2017-09-07T08:42:37.038Z,1007.82
2017-09-07T08:43:37.016Z,1007.75
2017-09-07T08:44:36.994Z,1007.75
2017-09-07T08:45:36.973Z,1007.82
2017-09-07T08:46:36.949Z,1007.81
2017-09-07T08:47:36.929Z,1007.76
2017-09-07T08:48:36.908Z,1007.78
2017-09-07T08:49:36.892Z,1007.79
2017-09-07T08:50:36.864Z,1007.87
2017-09-07T08:51:36.841Z,1007.82
2017-09-07T08:52:36.819Z,1007.77
2017-09-07T08:53:36.831Z,1007.74
2017-09-07T08:54:36.777Z,1007.80
2017-09-07T08:55:36.754Z,1007.79
2017-09-07T08:56:36.732Z,1007.77
2017-09-07T08:57:36.711Z,1007.87
2017-09-07T08:58:36.690Z,1007.72
2017-09-07T08:59:36.673Z,1007.84
2017-09-07T09:00:36.646Z,1007.77
2017-09-07T09:01:36.624Z,1007.77
2017-09-07T09:02:36.601Z,1007.75
2017-09-07T09:03:36.581Z,1007.78
2017-09-07T09:04:36.558Z,1007.78
2017-09-07T09:05:36.538Z,1007.74
2017-09-07T09:06:36.515Z,1007.79
2017-09-07T09:07:36.494Z,1007.76
2017-09-07T09:08:36.471Z,1007.77
2017-09-07T09:09:36.451Z,1007.78
2017-09-07T09:10:36.428Z,1007.80
2017-09-07T09:11:36.408Z,1007.75
2017-09-07T09:12:36.386Z,1007.68
2017-09-07T09:13:36.363Z,1007.66
2017-09-07T09:14:36.341Z,1007.70
2017-09-07T09:15:36.319Z,1007.72
2017-09-07T09:16:36.298Z,1007.73
2017-09-07T09:17:36.277Z,1007.71
2017-09-07T09:18:36.254Z,1007.75
2017-09-07T09:19:36.233Z,1007.75
2017-09-07T09:20:36.211Z,1007.75
2017-09-07T09:21:36.195Z,1007.78
2017-09-07T09:22:36.165Z,1007.72
2017-09-07T09:23:36.145Z,1007.71
2017-09-07T09:24:36.124Z,1007.73
2017-09-07T09:25:36.129Z,1007.72
2017-09-07T09:26:36.081Z,1007.75
2017-09-07T09:27:36.059Z,1007.69
2017-09-07T09:28:36.038Z,1007.74
2017-09-07T09:29:36.015Z,1007.69
2017-09-07T09:30:35.993Z,1007.71
2017-09-07T09:31:35.975Z,1007.68
2017-09-07T09:32:35.950Z,1007.74
2017-09-07T09:33:35.928Z,1007.73
2017-09-07T09:34:35.906Z,1007.74
2017-09-07T09:35:35.889Z,1007.73
2017-09-07T09:36:35.863Z,1007.72
2017-09-07T09:37:35.840Z,1007.78
2017-09-07T09:38:35.818Z,1007.72
2017-09-07T09:39:35.823Z,1007.69
2017-09-07T09:40:35.776Z,1007.66
2017-09-07T09:41:35.754Z,1007.67
2017-09-07T09:42:35.735Z,1007.69
2017-09-07T09:43:35.711Z,1007.66
2017-09-07T09:44:35.689Z,1007.62
2017-09-07T09:45:35.668Z,1007.61
2017-09-07T09:46:35.644Z,1007.66
2017-09-07T09:47:35.623Z,1007.63
2017-09-07T09:48:35.602Z,1007.65
2017-09-07T09:49:35.580Z,1007.66
2017-09-07T09:50:35.557Z,1007.61
2017-09-07T09:51:35.536Z,1007.63
2017-09-07T09:52:35.516Z,1007.66
2017-09-07T09:53:35.495Z,1007.64
2017-09-07T09:54:35.471Z,1007.58
2017-09-07T09:55:35.450Z,1007.54
2017-09-07T09:56:35.427Z,1007.66
2017-09-07T09:57:35.411Z,1007.70
2017-09-07T09:58:35.383Z,1007.68
2017-09-07T09:59:35.363Z,1007.73
2017-09-07T10:00:35.342Z,1007.71
2017-09-07T10:01:35.320Z,1007.65
2017-09-07T10:02:35.298Z,1007.83
2017-09-07T10:03:35.277Z,1007.81
2017-09-07T10:04:35.253Z,1007.75
2017-09-07T10:05:35.233Z,1007.76
2017-09-07T10:06:35.210Z,1007.79
2017-09-07T10:07:35.189Z,1007.66
2017-09-07T10:08:35.170Z,1007.61
2017-09-07T10:09:35.146Z,1007.63
2017-09-07T10:10:35.122Z,1007.59
2017-09-07T10:11:35.101Z,1007.52
2017-09-07T10:12:35.080Z,1007.55
2017-09-07T10:13:35.058Z,1007.57
2017-09-07T10:14:35.035Z,1007.53
2017-09-07T10:15:35.014Z,1007.56
2017-09-07T10:16:34.993Z,1007.58
2017-09-07T10:17:34.972Z,1007.57
2017-09-07T10:18:34.949Z,1007.54
2017-09-07T10:19:34.926Z,1007.52
2017-09-07T10:20:34.905Z,1007.51
2017-09-07T10:21:34.883Z,1007.54
2017-09-07T10:22:34.862Z,1007.49
2017-09-07T10:23:34.840Z,1007.49
2017-09-07T10:24:34.819Z,1007.47
2017-09-07T10:25:34.800Z,1007.47
2017-09-07T10:26:34.774Z,1007.45
2017-09-07T10:27:34.753Z,1007.35
2017-09-07T10:28:34.732Z,1007.39
2017-09-07T10:29:34.715Z,1007.39
2017-09-07T10:30:34.689Z,1007.49
2017-09-07T10:31:34.666Z,1007.46
2017-09-07T10:32:34.645Z,1007.59
2017-09-07T10:33:34.624Z,1007.66
2017-09-07T10:34:34.600Z,1007.61
2017-09-07T10:35:34.579Z,1007.61
2017-09-07T10:36:34.556Z,1007.61
2017-09-07T10:37:34.536Z,1007.73
2017-09-07T10:38:34.513Z,1007.71
2017-09-07T10:39:34.491Z,1007.67
2017-09-07T10:40:34.470Z,1007.69
2017-09-07T10:41:34.448Z,1007.68
2017-09-07T10:42:34.427Z,1007.67
2017-09-07T10:43:34.404Z,1007.61
2017-09-07T10:44:34.383Z,1007.66
2017-09-07T10:45:34.363Z,1007.63
2017-09-07T10:46:34.338Z,1007.62
2017-09-07T10:47:34.318Z,1007.59
2017-09-07T10:48:34.302Z,1007.62
2017-09-07T10:49:34.275Z,1007.55
2017-09-07T10:50:34.252Z,1007.54
2017-09-07T10:51:34.235Z,1007.49
2017-09-07T10:52:34.209Z,1007.51
2017-09-07T10:53:34.187Z,1007.54
2017-09-07T10:54:34.164Z,1007.49
2017-09-07T10:55:34.146Z,1007.51
2017-09-07T10:56:34.120Z,1007.54
2017-09-07T10:57:34.101Z,1007.43
2017-09-07T10:58:34.076Z,1007.43
2017-09-07T10:59:34.058Z,1007.45
2017-09-07T11:00:34.033Z,1007.41
2017-09-07T11:01:34.013Z,1007.43
2017-09-07T11:02:33.990Z,1007.43
2017-09-07T11:03:33.968Z,1007.47
2017-09-07T11:04:33.948Z,1007.52
2017-09-07T11:05:33.925Z,1007.52
2017-09-07T11:06:33.902Z,1007.57
2017-09-07T11:07:33.882Z,1007.55
2017-09-07T11:08:33.859Z,1007.53
2017-09-07T11:09:33.838Z,1007.52
2017-09-07T11:10:33.815Z,1007.55
2017-09-07T11:11:33.793Z,1007.53
2017-09-07T11:12:33.773Z,1007.62
2017-09-07T11:13:33.750Z,1007.61
2017-09-07T11:14:33.729Z,1007.57
2017-09-07T11:15:33.706Z,1007.59
2017-09-07T11:16:33.686Z,1007.60
2017-09-07T11:17:33.665Z,1007.59
2017-09-07T11:18:33.642Z,1007.58
2017-09-07T11:19:33.620Z,1007.58
2017-09-07T11:20:33.598Z,1007.62
2017-09-07T11:21:33.577Z,1007.59
2017-09-07T11:22:33.556Z,1007.59
2017-09-07T11:23:33.533Z,1007.58
2017-09-07T11:24:33.511Z,1007.55
2017-09-07T11:25:33.490Z,1007.57
2017-09-07T11:26:33.466Z,1007.57
2017-09-07T11:27:33.444Z,1007.52
2017-09-07T11:28:33.423Z,1007.52
2017-09-07T11:29:33.401Z,1007.53
2017-09-07T11:30:33.380Z,1007.54
2017-09-07T11:31:33.358Z,1007.55
2017-09-07T11:32:33.336Z,1007.60
2017-09-07T11:33:33.314Z,1007.57
2017-09-07T11:34:33.294Z,1007.60
2017-09-07T11:35:33.270Z,1007.61
2017-09-07T11:36:33.249Z,1007.62
2017-09-07T11:37:33.227Z,1007.58
2017-09-07T11:38:33.205Z,1007.60
2017-09-07T11:39:33.183Z,1007.61
2017-09-07T11:40:33.166Z,1007.59
2017-09-07T11:41:33.141Z,1007.59
2017-09-07T11:42:33.117Z,1007.60
2017-09-07T11:43:33.097Z,1007.52
2017-09-07T11:44:33.078Z,1007.63
2017-09-07T11:45:33.053Z,1007.68
2017-09-07T11:46:33.031Z,1007.64
2017-09-07T11:47:33.009Z,1007.62
2017-09-07T11:48:32.987Z,1007.69
2017-09-07T11:49:32.972Z,1007.73
2017-09-07T11:50:32.946Z,1007.87
2017-09-07T11:51:32.922Z,1007.77
2017-09-07T11:52:32.902Z,1007.79
2017-09-07T11:53:32.889Z,1007.75
2017-09-07T11:54:32.857Z,1007.74
2017-09-07T11:55:32.834Z,1007.74
2017-09-07T11:56:32.813Z,1007.78
2017-09-07T11:57:32.792Z,1007.74
2017-09-07T11:58:32.769Z,1007.82
2017-09-07T11:59:32.747Z,1007.76
2017-09-07T12:00:32.727Z,1007.73
2017-09-07T12:01:32.705Z,1007.68
2017-09-07T12:02:32.683Z,1007.77
2017-09-07T12:03:32.661Z,1007.74
2017-09-07T12:04:32.640Z,1007.71
2017-09-07T12:05:32.618Z,1007.71
2017-09-07T12:06:32.595Z,1007.73
2017-09-07T12:07:32.575Z,1007.74
2017-09-07T12:08:32.556Z,1007.75
2017-09-07T12:09:32.532Z,1007.75
2017-09-07T12:10:32.507Z,1007.74
2017-09-07T12:11:32.486Z,1007.73
2017-09-07T12:12:32.465Z,1007.75
2017-09-07T12:13:32.444Z,1007.73
2017-09-07T12:14:32.422Z,1007.74
2017-09-07T12:15:32.400Z,1007.76
2017-09-07T12:16:32.377Z,1007.73
2017-09-07T12:17:32.356Z,1007.77
2017-09-07T12:18:32.334Z,1007.76
2017-09-07T12:19:32.311Z,1007.78
2017-09-07T12:20:32.291Z,1007.80
2017-09-07T12:21:32.269Z,1007.76
2017-09-07T12:22:32.247Z,1007.79
2017-09-07T12:23:32.226Z,1007.76
2017-09-07T12:24:32.204Z,1007.80
2017-09-07T12:25:32.183Z,1007.70
2017-09-07T12:26:32.160Z,1007.71
2017-09-07T12:27:32.139Z,1007.69
2017-09-07T12:28:32.117Z,1007.71
2017-09-07T12:29:32.096Z,1007.70
2017-09-07T12:30:32.072Z,1007.71
2017-09-07T12:31:32.052Z,1007.73
2017-09-07T12:32:32.031Z,1007.72
2017-09-07T12:33:32.007Z,1007.69
2017-09-07T12:34:31.987Z,1007.71
2017-09-07T12:35:31.970Z,1007.75
2017-09-07T12:36:31.942Z,1007.77
2017-09-07T12:37:31.920Z,1007.77
2017-09-07T12:38:31.899Z,1007.75
2017-09-07T12:39:31.876Z,1007.74
2017-09-07T12:40:31.856Z,1007.75
2017-09-07T12:41:31.837Z,1007.70
2017-09-07T12:42:31.812Z,1007.73
2017-09-07T12:43:31.791Z,1007.78
2017-09-07T12:44:31.769Z,1007.79
2017-09-07T12:45:31.746Z,1007.78
2017-09-07T12:46:31.724Z,1007.83